Terminal Aerodrome Forecast
Issued by NWS Shreveport, LA

Home | Current Version | Previous Version | Text Only | Print | Product List | Glossary On
Versions: 1 2 3 4 5 6 7 8 9 10 11 12 13 14 15 16 17 18 19
000
FTUS44 KSHV 301743
TAFTXK
TAF
KTXK 301743Z 3018/0118 VRB04KT P6SM SCT040 BKN100
      TEMPO 3020/3023 -SHRA OVC030
     FM302300 VRB04KT P6SM SCT040
     FM010400 35005KT P6SM BKN015
      TEMPO 0108/0112 4SM BR OVC005
     FM011200 02006KT P6SM BKN015
      TEMPO 0116/0118 SCT025=

USA.gov is the U.S. government's official web portal to all federal, state and local government web resources and services.